Time;durP1;ratioP1;P1;durP2;ratioP2;P2;SDS_P1;SDS_P2;PMS_P1;PMS_P2;Temp;Humidity;BMP_temperature;BMP_pressure;BME280_temperature;BME280_humidity;BME280_pressure;Samples;Min_cycle;Max_cycle;Signal;HPM_P1;HPM_P2
2023/04/05 00:01:59;;;;;;;5.13;3.40;;;5.90;27.00;;;;;;10280314;28;20382;-70
2023/04/05 00:07:07;;;;;;;5.57;4.50;;;6.00;27.10;;;;;;10287223;28;20218;-70
2023/04/05 00:12:10;;;;;;;5.67;5.00;;;5.90;27.10;;;;;;10281889;28;20715;-70
2023/04/05 00:17:14;;;;;;;5.17;4.67;;;5.80;27.10;;;;;;10282183;28;20209;-70
2023/04/05 00:22:19;;;;;;;4.60;4.20;;;5.80;27.10;;;;;;10279128;28;20227;-70
2023/04/05 00:27:22;;;;;;;4.93;4.53;;;5.70;27.30;;;;;;10284950;28;20216;-70
2023/04/05 00:32:25;;;;;;;4.27;3.87;;;5.60;27.20;;;;;;10288995;28;20228;-70
2023/04/05 00:37:29;;;;;;;4.13;3.70;;;5.50;27.30;;;;;;10285047;28;20265;-70
2023/04/05 00:42:32;;;;;;;3.67;3.37;;;5.40;27.50;;;;;;10272700;28;20707;-70
2023/04/05 00:47:36;;;;;;;5.70;4.87;;;5.40;27.40;;;;;;10291839;28;20214;-70
2023/04/05 00:52:41;;;;;;;6.23;5.57;;;5.40;27.50;;;;;;10280285;28;20338;-71
2023/04/05 00:57:45;;;;;;;5.37;4.67;;;5.30;27.60;;;;;;10284221;28;20719;-79
2023/04/05 01:02:52;;;;;;;4.83;4.30;;;5.30;27.50;;;;;;10280203;28;20259;-79
2023/04/05 01:08:05;;;;;;;5.33;4.60;;;5.30;27.60;;;;;;10281036;28;20216;-78
2023/04/05 01:13:08;;;;;;;5.53;5.03;;;5.20;27.80;;;;;;10277867;28;20247;-79
2023/04/05 01:18:12;;;;;;;5.37;4.70;;;5.20;27.60;;;;;;10286488;28;20591;-80
2023/04/05 01:23:36;;;;;;;5.40;4.57;;;5.20;27.50;;;;;;10280194;28;20236;-78
2023/04/05 01:29:04;;;;;;;3.60;3.30;;;5.00;28.00;;;;;;10279427;28;20320;-78
2023/04/05 01:34:17;;;;;;;6.03;4.50;;;5.00;28.20;;;;;;10269639;28;20227;-78
2023/04/05 01:39:21;;;;;;;8.77;4.30;;;4.90;28.10;;;;;;10283630;28;20215;-78
2023/04/05 01:44:24;;;;;;;6.47;4.47;;;4.90;27.90;;;;;;10280906;28;20220;-78
2023/04/05 01:49:28;;;;;;;4.67;4.23;;;4.90;27.90;;;;;;10284691;28;20215;-78
2023/04/05 01:54:31;;;;;;;3.77;3.40;;;4.90;28.10;;;;;;10283514;28;20219;-78
2023/04/05 01:59:35;;;;;;;4.27;3.87;;;4.90;28.50;;;;;;10283647;28;20235;-78
2023/04/05 02:04:39;;;;;;;4.93;4.30;;;4.80;28.00;;;;;;10278808;28;20215;-78
2023/04/05 02:09:42;;;;;;;5.17;4.30;;;4.80;28.20;;;;;;10282035;28;20258;-78
2023/04/05 02:14:45;;;;;;;3.10;2.90;;;4.80;28.10;;;;;;10281850;28;20223;-78
2023/04/05 02:19:51;;;;;;;4.27;3.87;;;4.70;28.10;;;;;;10282752;28;20712;-80
2023/04/05 02:24:55;;;;;;;4.57;3.47;;;4.70;28.30;;;;;;10286989;28;20531;-78
2023/04/05 02:29:58;;;;;;;4.90;4.13;;;4.70;28.20;;;;;;10288056;28;20230;-78
2023/04/05 02:35:02;;;;;;;4.67;4.17;;;4.70;28.30;;;;;;10292546;28;20211;-78
2023/04/05 02:40:08;;;;;;;5.53;4.10;;;4.70;28.50;;;;;;10286753;28;20605;-78
2023/04/05 02:45:11;;;;;;;4.33;3.90;;;4.60;28.40;;;;;;10286399;28;20219;-78
2023/04/05 02:50:19;;;;;;;4.57;3.83;;;4.60;28.30;;;;;;10283982;28;20232;-78
2023/04/05 02:55:22;;;;;;;4.90;3.37;;;4.60;28.50;;;;;;10289214;28;20251;-78
2023/04/05 03:00:26;;;;;;;4.30;3.90;;;4.50;28.40;;;;;;10285793;28;20225;-78
2023/04/05 03:05:31;;;;;;;4.10;3.00;;;4.50;28.40;;;;;;10291445;28;20302;-78
2023/04/05 03:10:38;;;;;;;4.03;3.47;;;4.50;28.50;;;;;;10285623;28;20246;-78
2023/04/05 03:15:41;;;;;;;3.80;3.40;;;4.50;28.50;;;;;;10282569;28;20215;-78
2023/04/05 03:20:48;;;;;;;3.27;2.80;;;4.40;28.40;;;;;;10284211;28;20329;-78
2023/04/05 03:25:54;;;;;;;3.17;2.87;;;4.40;28.50;;;;;;10289877;28;20269;-78
2023/04/05 03:30:57;;;;;;;3.97;3.67;;;4.40;28.50;;;;;;10282638;28;20599;-78
2023/04/05 03:36:01;;;;;;;4.07;3.67;;;4.40;28.40;;;;;;10287215;28;20226;-78
2023/04/05 03:41:05;;;;;;;4.57;4.10;;;4.60;28.60;;;;;;10282243;28;20715;-78
2023/04/05 03:46:08;;;;;;;4.20;3.80;;;4.40;28.40;;;;;;10285292;28;20203;-78
2023/04/05 03:51:13;;;;;;;3.90;3.47;;;4.30;28.50;;;;;;10289134;28;20235;-78
2023/04/05 03:56:16;;;;;;;4.97;3.90;;;4.30;28.50;;;;;;10292683;28;20242;-78
2023/04/05 04:01:20;;;;;;;3.70;3.40;;;4.30;28.40;;;;;;10281693;28;20224;-78
2023/04/05 04:06:25;;;;;;;4.07;3.07;;;4.20;28.50;;;;;;10287964;28;20207;-78
2023/04/05 04:11:28;;;;;;;3.73;3.30;;;4.20;28.50;;;;;;10286238;28;20231;-78
2023/04/05 04:16:31;;;;;;;3.33;3.10;;;4.20;28.40;;;;;;10282831;28;20656;-78
2023/04/05 04:21:39;;;;;;;3.00;2.80;;;4.20;28.50;;;;;;10287067;28;20663;-78
2023/04/05 04:26:46;;;;;;;4.43;3.83;;;4.20;28.60;;;;;;10282412;28;20208;-79
2023/04/05 04:31:49;;;;;;;3.50;3.20;;;4.20;28.50;;;;;;10282426;28;20633;-79
2023/04/05 04:37:00;;;;;;;3.37;3.07;;;4.10;28.40;;;;;;10282118;28;20232;-79
2023/04/05 04:42:03;;;;;;;4.67;3.67;;;4.10;28.50;;;;;;10282828;28;20224;-79
2023/04/05 04:47:12;;;;;;;4.53;3.40;;;4.10;28.50;;;;;;10285263;28;20215;-79
2023/04/05 04:52:18;;;;;;;3.43;3.13;;;4.00;28.40;;;;;;10285358;28;20404;-79
2023/04/05 04:57:21;;;;;;;4.80;3.47;;;4.10;28.50;;;;;;10280600;28;20208;-79
2023/04/05 05:02:24;;;;;;;4.47;3.70;;;3.90;28.40;;;;;;10279765;28;20224;-79
2023/04/05 05:07:29;;;;;;;3.10;2.80;;;3.80;28.30;;;;;;10287221;28;20223;-79
2023/04/05 05:12:32;;;;;;;4.90;4.07;;;3.70;28.40;;;;;;10286597;28;20615;-78
2023/04/05 05:17:36;;;;;;;4.77;4.13;;;3.80;28.60;;;;;;10282611;28;20583;-78
2023/04/05 05:22:41;;;;;;;4.03;3.63;;;3.60;28.50;;;;;;10281824;28;20228;-78
2023/04/05 05:27:44;;;;;;;4.73;4.20;;;3.60;28.70;;;;;;10284564;28;20211;-78
2023/04/05 05:32:47;;;;;;;5.00;4.50;;;3.60;28.60;;;;;;10279645;28;20235;-79
2023/04/05 05:37:52;;;;;;;4.80;4.27;;;3.50;28.50;;;;;;10285151;28;20212;-78
2023/04/05 05:42:55;;;;;;;4.33;3.93;;;3.60;28.90;;;;;;10281884;28;20224;-79
2023/04/05 05:47:58;;;;;;;5.77;4.50;;;3.50;28.80;;;;;;10281089;28;20211;-79
2023/04/05 05:53:03;;;;;;;6.93;5.17;;;3.50;28.90;;;;;;10280387;28;20227;-78
2023/04/05 05:58:06;;;;;;;5.77;4.83;;;3.50;29.10;;;;;;10287261;28;20583;-78
2023/04/05 06:03:09;;;;;;;9.07;7.03;;;3.50;29.00;;;;;;10290822;28;20236;-78
2023/04/05 06:08:14;;;;;;;7.57;5.53;;;3.60;29.20;;;;;;10290716;28;20714;-78
2023/04/05 06:13:17;;;;;;;4.77;4.17;;;3.60;29.40;;;;;;10289251;28;20238;-78
2023/04/05 06:18:20;;;;;;;5.20;4.13;;;3.60;29.30;;;;;;10286915;28;20212;-78
2023/04/05 06:23:25;;;;;;;5.00;4.13;;;3.70;29.30;;;;;;10289555;28;21157;-78
2023/04/05 06:28:28;;;;;;;4.00;3.60;;;3.70;29.40;;;;;;10285860;28;20211;-78
2023/04/05 06:33:31;;;;;;;4.37;3.97;;;3.70;29.40;;;;;;10290070;28;20231;-79
2023/04/05 06:38:36;;;;;;;4.73;4.30;;;3.70;29.40;;;;;;10285111;28;20210;-78
2023/04/05 06:43:39;;;;;;;4.67;3.77;;;3.80;29.60;;;;;;10286297;28;20273;-78
2023/04/05 06:48:43;;;;;;;3.90;3.40;;;3.80;29.50;;;;;;10288268;28;20577;-78
2023/04/05 06:53:47;;;;;;;4.00;3.60;;;4.00;29.40;;;;;;10293430;28;20591;-78
2023/04/05 06:58:51;;;;;;;5.90;3.87;;;4.00;29.60;;;;;;10287470;28;20312;-78
2023/04/05 07:03:54;;;;;;;4.00;3.23;;;4.10;29.50;;;;;;10287053;28;20255;-78
2023/04/05 07:08:59;;;;;;;4.07;3.00;;;4.20;29.60;;;;;;10287610;28;20219;-77
2023/04/05 07:14:02;;;;;;;3.40;2.83;;;4.30;29.70;;;;;;10288402;28;20236;-78
2023/04/05 07:19:06;;;;;;;3.30;3.00;;;4.40;29.60;;;;;;10285373;28;20216;-78
2023/04/05 07:24:10;;;;;;;3.57;3.03;;;4.50;29.50;;;;;;10275541;28;20234;-77
2023/04/05 07:29:13;;;;;;;3.57;2.70;;;4.70;29.50;;;;;;10274268;28;20214;-76
2023/04/05 07:34:16;;;;;;;3.40;2.77;;;4.80;29.30;;;;;;10278337;28;20421;-77
2023/04/05 07:39:21;;;;;;;3.63;2.80;;;5.00;29.30;;;;;;10275495;28;20681;-77
2023/04/05 07:44:24;;;;;;;3.37;2.77;;;5.20;29.10;;;;;;10272230;28;20219;-77
2023/04/05 07:49:29;;;;;;;3.57;2.83;;;5.40;29.10;;;;;;10277124;28;20736;-79
2023/04/05 07:54:33;;;;;;;2.50;2.30;;;5.70;29.00;;;;;;10271624;28;20596;-76
2023/04/05 07:59:37;;;;;;;5.50;2.57;;;5.90;28.80;;;;;;10273291;28;20231;-76
2023/04/05 08:04:40;;;;;;;4.00;2.90;;;6.10;28.80;;;;;;10272716;28;20753;-77
2023/04/05 08:09:44;;;;;;;3.80;2.53;;;6.40;28.70;;;;;;10269243;28;20239;-77
2023/04/05 08:14:47;;;;;;;3.40;2.50;;;6.60;28.40;;;;;;10273302;28;20242;-77
2023/04/05 08:19:52;;;;;;;2.83;2.53;;;6.90;28.50;;;;;;10277058;28;20238;-77
2023/04/05 08:24:56;;;;;;;4.23;2.63;;;7.10;28.40;;;;;;10269578;28;20225;-77
2023/04/05 08:29:59;;;;;;;2.97;2.77;;;7.30;28.10;;;;;;10268803;28;20219;-77
2023/04/05 08:35:03;;;;;;;2.80;2.50;;;7.60;28.10;;;;;;10273649;28;20219;-77
2023/04/05 08:40:09;;;;;;;3.33;2.87;;;7.80;27.90;;;;;;10273748;28;20234;-78
2023/04/05 08:45:15;;;;;;;2.97;2.77;;;8.00;27.80;;;;;;10271195;28;20236;-77
2023/04/05 08:50:18;;;;;;;3.67;2.93;;;8.20;27.90;;;;;;10268021;28;20227;-77
2023/04/05 08:55:23;;;;;;;3.37;3.07;;;8.40;28.00;;;;;;10271259;28;22585;-77
2023/04/05 09:00:27;;;;;;;3.20;2.50;;;8.60;27.60;;;;;;10271980;28;20990;-78
2023/04/05 09:05:32;;;;;;;3.20;2.90;;;8.80;27.50;;;;;;10262843;28;20676;-77
2023/04/05 09:10:36;;;;;;;2.90;2.67;;;9.00;27.50;;;;;;10275270;28;20226;-77
2023/04/05 09:15:40;;;;;;;2.80;2.60;;;9.10;27.00;;;;;;10265815;28;20681;-77
2023/04/05 09:20:44;;;;;;;3.40;2.70;;;9.30;26.90;;;;;;10270959;28;20227;-77
2023/04/05 09:25:51;;;;;;;3.43;2.80;;;9.40;26.70;;;;;;10270809;28;20220;-78
2023/04/05 09:30:54;;;;;;;3.43;2.80;;;9.50;26.70;;;;;;10273066;28;20239;-78
2023/04/05 09:35:57;;;;;;;3.43;2.77;;;9.60;26.70;;;;;;10281488;28;20234;-77
2023/04/05 09:41:09;;;;;;;3.17;2.77;;;9.60;26.30;;;;;;10274677;28;20243;-78
2023/04/05 09:46:32;;;;;;;3.27;2.80;;;9.70;25.40;;;;;;10277312;28;20727;-77
2023/04/05 09:51:37;;;;;;;4.53;3.13;;;9.80;25.40;;;;;;10279632;28;20736;-77
2023/04/05 09:56:55;;;;;;;3.23;2.93;;;9.80;26.00;;;;;;10281841;28;20266;-77
2023/04/05 10:01:58;;;;;;;3.70;3.10;;;9.80;25.00;;;;;;10278786;28;20246;-77
2023/04/05 10:07:02;;;;;;;2.97;2.70;;;9.80;25.90;;;;;;10276746;28;20216;-75
2023/04/05 10:12:07;;;;;;;3.40;3.10;;;9.90;26.00;;;;;;10271940;28;20238;-77
2023/04/05 10:17:15;;;;;;;3.43;2.80;;;9.90;25.30;;;;;;10277131;28;20224;-77
2023/04/05 10:22:28;;;;;;;3.37;3.07;;;9.80;25.20;;;;;;10278684;28;20244;-77
2023/04/05 10:27:39;;;;;;;3.20;2.90;;;9.80;24.80;;;;;;10282551;28;20231;-75
2023/04/05 10:33:01;;;;;;;3.50;3.20;;;9.80;25.00;;;;;;10278593;28;20583;-77
2023/04/05 10:38:17;;;;;;;3.77;2.90;;;9.80;24.70;;;;;;10268668;28;20779;-77
2023/04/05 10:43:25;;;;;;;3.00;2.70;;;9.80;24.50;;;;;;10272605;28;20250;-77
2023/04/05 10:48:37;;;;;;;3.13;2.93;;;9.80;24.90;;;;;;10281884;28;20597;-77
2023/04/05 10:53:41;;;;;;;3.10;2.80;;;9.90;24.70;;;;;;10276003;28;20340;-78
2023/04/05 10:58:47;;;;;;;4.40;3.20;;;10.00;24.70;;;;;;10284057;28;20751;-78
2023/04/05 11:03:53;;;;;;;3.33;3.03;;;10.10;24.60;;;;;;10280392;28;21169;-78
2023/04/05 11:09:00;;;;;;;3.30;3.00;;;10.30;25.00;;;;;;10281987;28;20311;-77
2023/04/05 11:14:18;;;;;;;3.20;3.00;;;10.50;24.70;;;;;;10283263;28;20752;-77
2023/04/05 11:19:41;;;;;;;3.70;3.20;;;10.60;23.90;;;;;;10286448;28;20251;-77
2023/04/05 11:24:55;;;;;;;3.80;2.90;;;10.70;24.50;;;;;;10283946;28;20223;-77
2023/04/05 11:30:00;;;;;;;3.40;3.10;;;10.80;23.60;;;;;;10281105;28;20232;-77
2023/04/05 11:35:06;;;;;;;3.60;3.30;;;10.80;23.90;;;;;;10283163;28;20220;-77
2023/04/05 11:40:26;;;;;;;3.67;3.20;;;10.80;23.80;;;;;;10277721;28;20243;-77
2023/04/05 11:45:32;;;;;;;3.70;3.07;;;10.80;23.10;;;;;;10284500;28;20249;-77
2023/04/05 11:50:36;;;;;;;3.37;3.07;;;11.00;24.20;;;;;;10286596;28;20232;-77
2023/04/05 11:55:41;;;;;;;3.40;3.10;;;11.10;24.20;;;;;;10276073;28;20346;-77
2023/04/05 12:00:47;;;;;;;3.30;3.00;;;11.20;24.20;;;;;;10278961;28;20799;-72
2023/04/05 12:05:51;;;;;;;3.40;3.03;;;11.30;23.50;;;;;;10286165;28;20239;-71
2023/04/05 12:10:55;;;;;;;3.17;2.87;;;11.30;23.90;;;;;;10277462;28;20232;-68
2023/04/05 12:16:01;;;;;;;3.57;3.23;;;11.40;23.80;;;;;;10284464;28;20235;-68
2023/04/05 12:21:05;;;;;;;5.27;3.33;;;11.40;23.50;;;;;;10286446;28;20234;-68
2023/04/05 12:26:10;;;;;;;4.73;3.10;;;11.40;23.60;;;;;;10281143;28;20266;-68
2023/04/05 12:31:14;;;;;;;4.23;3.20;;;11.40;23.90;;;;;;10277957;28;20327;-67
2023/04/05 12:36:18;;;;;;;3.20;2.90;;;11.50;23.40;;;;;;10289173;28;20258;-68
2023/04/05 12:41:28;;;;;;;3.47;3.17;;;11.60;23.30;;;;;;10277612;28;20238;-68
2023/04/05 12:46:42;;;;;;;3.10;2.80;;;11.50;22.20;;;;;;10266010;28;20226;-68
2023/04/05 12:51:47;;;;;;;3.33;3.03;;;11.40;22.10;;;;;;10266963;28;20231;-68
2023/04/05 12:56:51;;;;;;;3.27;2.97;;;11.30;22.80;;;;;;10277292;28;20320;-69
2023/04/05 13:01:56;;;;;;;3.43;3.23;;;11.20;23.00;;;;;;10270764;28;20223;-67
2023/04/05 13:06:59;;;;;;;3.47;3.17;;;11.20;23.00;;;;;;10276693;28;20695;-68
2023/04/05 13:12:02;;;;;;;5.03;3.00;;;11.20;23.20;;;;;;10272650;28;20223;-68
2023/04/05 13:17:07;;;;;;;3.40;3.10;;;11.20;23.00;;;;;;10277952;28;20227;-70
2023/04/05 13:22:10;;;;;;;3.60;3.20;;;11.20;22.70;;;;;;10277168;28;20667;-70
2023/04/05 13:27:13;;;;;;;3.93;3.30;;;11.20;23.10;;;;;;10277965;28;20732;-70
2023/04/05 13:32:18;;;;;;;3.43;3.13;;;11.30;23.10;;;;;;10288105;28;20724;-70
2023/04/05 13:37:21;;;;;;;3.67;3.10;;;11.40;22.90;;;;;;10268115;28;20235;-70
2023/04/05 13:42:24;;;;;;;2.80;2.60;;;11.50;23.30;;;;;;10271921;28;20243;-68
2023/04/05 13:47:29;;;;;;;2.80;2.60;;;11.50;22.80;;;;;;10274397;28;20239;-68
2023/04/05 13:52:32;;;;;;;2.90;2.57;;;11.50;22.40;;;;;;10267587;28;20238;-68
2023/04/05 13:57:35;;;;;;;4.13;3.20;;;11.60;22.70;;;;;;10271997;28;20242;-68
2023/04/05 14:02:40;;;;;;;3.27;2.90;;;11.70;22.70;;;;;;10271705;28;20235;-68
2023/04/05 14:07:44;;;;;;;3.30;2.90;;;11.70;22.20;;;;;;10273548;28;20235;-67
2023/04/05 14:12:47;;;;;;;3.27;2.97;;;11.80;22.70;;;;;;10265605;28;20228;-68
2023/04/05 14:17:52;;;;;;;6.23;2.93;;;11.80;22.40;;;;;;10276446;28;20235;-68
2023/04/05 14:22:55;;;;;;;3.43;3.13;;;11.90;21.90;;;;;;10273651;28;20621;-68
2023/04/05 14:27:59;;;;;;;3.20;2.90;;;11.90;22.40;;;;;;10274315;28;20804;-68
2023/04/05 14:33:03;;;;;;;3.47;3.17;;;11.80;22.20;;;;;;10280128;28;20704;-69
2023/04/05 14:38:07;;;;;;;3.20;2.90;;;11.80;21.90;;;;;;10278521;28;20598;-69
2023/04/05 14:43:10;;;;;;;3.57;3.10;;;11.80;22.00;;;;;;10275373;28;20327;-68
2023/04/05 14:48:14;;;;;;;3.07;2.77;;;11.70;22.00;;;;;;10271783;28;20231;-67
2023/04/05 14:53:18;;;;;;;2.90;2.70;;;11.70;21.60;;;;;;10273076;28;20258;-70
2023/04/05 14:58:21;;;;;;;3.83;2.80;;;11.60;21.80;;;;;;10274543;28;20240;-77
2023/04/05 15:03:26;;;;;;;3.10;2.80;;;11.50;21.90;;;;;;10272326;28;20236;-77
2023/04/05 15:08:29;;;;;;;3.27;2.80;;;11.50;21.60;;;;;;10271315;28;20228;-78
2023/04/05 15:13:32;;;;;;;3.40;3.10;;;11.40;21.70;;;;;;10274687;28;20240;-77
2023/04/05 15:18:37;;;;;;;4.50;3.20;;;11.40;21.90;;;;;;10275601;28;20663;-78
2023/04/05 15:23:40;;;;;;;3.73;3.27;;;11.30;21.60;;;;;;10263216;28;20239;-70
2023/04/05 15:28:44;;;;;;;2.90;2.70;;;11.30;21.90;;;;;;10271233;28;20220;-70
2023/04/05 15:33:48;;;;;;;3.13;2.80;;;11.40;22.20;;;;;;10274909;28;20534;-70
2023/04/05 15:38:51;;;;;;;3.13;2.90;;;11.40;21.90;;;;;;10269174;28;20230;-71
2023/04/05 15:43:55;;;;;;;4.37;3.20;;;11.50;21.90;;;;;;10276902;28;20626;-70
2023/04/05 15:48:59;;;;;;;3.20;2.90;;;11.60;22.00;;;;;;10272951;28;20279;-70
2023/04/05 15:54:03;;;;;;;2.73;2.50;;;11.50;21.90;;;;;;10272489;28;20287;-70
2023/04/05 15:59:06;;;;;;;3.53;2.90;;;11.60;21.90;;;;;;10271481;28;20643;-70
2023/04/05 16:04:11;;;;;;;4.83;3.20;;;11.70;22.00;;;;;;10273923;28;20246;-70
2023/04/05 16:09:14;;;;;;;3.30;2.97;;;11.70;21.90;;;;;;10274679;28;20231;-70
2023/04/05 16:14:19;;;;;;;3.20;2.90;;;11.80;21.90;;;;;;10287404;28;20480;-71
2023/04/05 16:19:23;;;;;;;3.30;3.00;;;11.90;22.00;;;;;;10268155;28;20231;-70
2023/04/05 16:24:27;;;;;;;3.23;2.70;;;11.90;21.60;;;;;;10279841;28;20236;-70
2023/04/05 16:29:30;;;;;;;4.43;3.07;;;12.00;21.80;;;;;;10288237;28;20251;-70
2023/04/05 16:34:35;;;;;;;5.53;3.00;;;12.10;21.70;;;;;;10277360;28;20236;-71
2023/04/05 16:39:38;;;;;;;3.30;3.00;;;12.10;21.40;;;;;;10278069;28;20238;-72
2023/04/05 16:44:41;;;;;;;4.27;2.60;;;12.10;21.50;;;;;;10276410;28;20223;-70
2023/04/05 16:49:46;;;;;;;3.47;2.90;;;12.00;21.20;;;;;;10278978;28;20239;-70
2023/04/05 16:54:49;;;;;;;3.10;2.80;;;12.00;20.80;;;;;;10278421;28;20238;-71
2023/04/05 16:59:52;;;;;;;3.67;3.03;;;11.80;21.20;;;;;;10285838;28;20235;-72
2023/04/05 17:04:57;;;;;;;3.97;3.40;;;11.70;21.20;;;;;;10282516;28;20231;-70
2023/04/05 17:10:01;;;;;;;3.37;3.07;;;11.70;20.90;;;;;;10275067;28;20647;-70
2023/04/05 17:15:05;;;;;;;4.53;3.10;;;11.60;21.10;;;;;;10281905;28;20720;-70
2023/04/05 17:20:11;;;;;;;3.30;3.00;;;11.60;21.10;;;;;;10277268;28;20239;-70
2023/04/05 17:25:15;;;;;;;2.90;2.70;;;11.50;20.90;;;;;;10281398;28;20231;-70
2023/04/05 17:30:18;;;;;;;3.50;2.73;;;11.40;21.10;;;;;;10283226;28;20231;-70
2023/04/05 17:35:23;;;;;;;2.57;2.37;;;11.40;21.20;;;;;;10276499;28;20236;-70
2023/04/05 17:40:26;;;;;;;2.40;2.20;;;11.30;20.90;;;;;;10281318;28;20236;-70
2023/04/05 17:45:30;;;;;;;2.67;2.23;;;11.30;21.40;;;;;;10277282;28;20255;-70
2023/04/05 17:50:35;;;;;;;3.87;3.57;;;11.30;21.30;;;;;;10276675;28;20235;-70
2023/04/05 17:55:39;;;;;;;5.80;4.07;;;11.30;21.40;;;;;;10293269;28;20738;-70
2023/04/05 18:00:42;;;;;;;4.63;3.40;;;11.30;21.40;;;;;;10278518;28;20239;-71
2023/04/05 18:05:52;;;;;;;3.97;3.57;;;11.20;21.40;;;;;;10289041;28;20238;-70
2023/04/05 18:10:57;;;;;;;3.60;3.30;;;11.20;21.20;;;;;;10287377;28;20224;-70
2023/04/05 18:16:00;;;;;;;3.87;3.50;;;11.20;21.60;;;;;;10285775;28;20231;-70
2023/04/05 18:21:05;;;;;;;3.83;3.50;;;11.20;21.90;;;;;;10289683;28;20289;-70
2023/04/05 18:26:08;;;;;;;4.40;4.00;;;11.10;21.80;;;;;;10279228;28;20231;-71
2023/04/05 18:31:11;;;;;;;4.83;3.73;;;11.10;21.80;;;;;;10288675;28;20630;-72
2023/04/05 18:36:16;;;;;;;5.27;4.70;;;11.00;21.80;;;;;;10281997;28;20610;-70
2023/04/05 18:41:19;;;;;;;5.60;4.20;;;10.90;21.80;;;;;;10280278;28;20307;-70
2023/04/05 18:46:23;;;;;;;4.63;3.50;;;10.80;21.80;;;;;;10286536;28;20709;-72
2023/04/05 18:51:28;;;;;;;5.03;4.63;;;10.70;21.90;;;;;;10283939;28;20287;-70
2023/04/05 18:56:31;;;;;;;3.87;3.57;;;10.60;21.80;;;;;;10295369;28;20237;-71
2023/04/05 19:01:34;;;;;;;5.10;3.90;;;10.50;22.00;;;;;;10288236;28;20242;-71
2023/04/05 19:06:39;;;;;;;3.80;3.40;;;10.40;21.90;;;;;;10286443;28;20255;-71
2023/04/05 19:11:42;;;;;;;4.20;2.67;;;10.30;21.90;;;;;;10286246;28;20262;-71
2023/04/05 19:16:45;;;;;;;4.50;4.10;;;10.20;22.00;;;;;;10289687;28;20235;-71
2023/04/05 19:21:50;;;;;;;5.47;4.97;;;10.20;22.10;;;;;;10287538;28;20280;-71
2023/04/05 19:26:54;;;;;;;6.57;5.93;;;10.10;22.10;;;;;;10278349;28;20222;-71
2023/04/05 19:31:57;;;;;;;6.87;6.03;;;10.00;22.20;;;;;;10287893;28;20719;-71
2023/04/05 19:37:01;;;;;;;6.03;5.00;;;10.00;22.30;;;;;;10284291;28;20231;-72
2023/04/05 19:42:05;;;;;;;5.67;5.17;;;9.90;23.10;;;;;;10281341;28;20234;-71
2023/04/05 19:47:10;;;;;;;6.20;5.67;;;9.90;23.10;;;;;;10274975;28;20231;-71
2023/04/05 19:52:35;;;;;;;8.83;7.97;;;9.80;23.10;;;;;;10286617;28;20780;-70
2023/04/05 19:57:40;;;;;;;9.70;8.30;;;9.70;23.10;;;;;;10282731;28;20339;-71
2023/04/05 20:02:43;;;;;;;8.77;7.87;;;9.70;23.10;;;;;;10277961;28;20319;-71
2023/04/05 20:07:48;;;;;;;9.97;8.27;;;9.60;23.20;;;;;;10287073;28;20255;-71
2023/04/05 20:12:51;;;;;;;10.60;9.50;;;9.50;23.10;;;;;;10280686;28;20234;-71
2023/04/05 20:17:54;;;;;;;10.70;9.67;;;9.50;23.20;;;;;;10283644;28;20235;-71
2023/04/05 20:22:59;;;;;;;10.90;9.80;;;9.40;23.40;;;;;;10284069;28;20306;-71
2023/04/05 20:28:04;;;;;;;8.47;7.23;;;9.30;23.30;;;;;;10284828;28;20230;-71
2023/04/05 20:33:42;;;;;;;9.83;7.30;;;9.20;23.20;;;;;;10277234;28;20315;-71
2023/04/05 20:38:48;;;;;;;8.83;6.57;;;9.00;23.30;;;;;;10274432;28;20239;-71
2023/04/05 20:43:51;;;;;;;10.33;7.53;;;8.80;23.40;;;;;;10276784;28;20228;-72
2023/04/05 20:48:56;;;;;;;7.10;6.20;;;8.60;23.40;;;;;;10280319;28;20255;-72
2023/04/05 20:54:01;;;;;;;7.67;6.30;;;8.50;23.60;;;;;;10277882;28;20224;-72
2023/04/05 20:59:04;;;;;;;7.50;5.83;;;8.40;23.70;;;;;;10284943;28;20232;-72
2023/04/05 21:04:08;;;;;;;4.63;4.23;;;8.30;23.70;;;;;;10283948;28;20290;-72
2023/04/05 21:09:12;;;;;;;5.43;4.63;;;8.10;23.90;;;;;;10283224;28;20780;-72
2023/04/05 21:14:16;;;;;;;6.23;5.40;;;8.00;24.10;;;;;;10283069;28;20238;-72
2023/04/05 21:19:19;;;;;;;6.40;5.17;;;8.00;24.10;;;;;;10279764;28;20247;-71
2023/04/05 21:24:23;;;;;;;5.60;4.77;;;8.00;24.20;;;;;;10284826;28;20239;-71
2023/04/05 21:29:26;;;;;;;6.97;4.87;;;7.90;24.30;;;;;;10283571;28;20232;-71
2023/04/05 21:34:30;;;;;;;6.97;6.20;;;7.90;24.20;;;;;;10277600;28;20273;-71
2023/04/05 21:39:34;;;;;;;4.97;4.47;;;7.80;24.30;;;;;;10270734;28;20239;-71
2023/04/05 21:44:37;;;;;;;5.90;5.20;;;7.80;24.40;;;;;;10275522;28;20227;-71
2023/04/05 21:49:41;;;;;;;5.83;4.83;;;7.80;24.50;;;;;;10281205;28;20236;-71
2023/04/05 21:54:46;;;;;;;5.50;4.63;;;7.80;24.50;;;;;;10276142;28;20231;-72
2023/04/05 21:59:49;;;;;;;6.17;5.00;;;7.70;24.50;;;;;;10292931;28;20223;-72
2023/04/05 22:04:52;;;;;;;7.73;5.70;;;7.70;24.50;;;;;;10278517;28;20220;-72
2023/04/05 22:09:57;;;;;;;8.20;7.13;;;7.60;24.50;;;;;;10283773;28;20742;-72
2023/04/05 22:15:00;;;;;;;7.83;6.57;;;7.60;24.60;;;;;;10269295;28;20226;-72
2023/04/05 22:20:05;;;;;;;9.63;6.87;;;7.60;24.70;;;;;;10275929;28;20572;-72
2023/04/05 22:25:10;;;;;;;9.00;6.37;;;7.50;24.50;;;;;;10286400;28;20215;-72
2023/04/05 22:30:14;;;;;;;5.93;5.00;;;7.40;24.60;;;;;;10284338;28;20561;-72
2023/04/05 22:35:18;;;;;;;10.57;7.13;;;7.30;24.60;;;;;;10278099;28;20262;-72
2023/04/05 22:40:25;;;;;;;8.03;6.20;;;7.20;25.00;;;;;;10280030;28;20235;-72
2023/04/05 22:45:29;;;;;;;13.10;7.93;;;7.20;24.90;;;;;;10286458;28;20228;-73
2023/04/05 22:50:32;;;;;;;8.20;5.93;;;7.20;24.90;;;;;;10284567;28;20716;-73
2023/04/05 22:55:38;;;;;;;4.87;4.07;;;7.10;24.90;;;;;;10286323;28;20592;-73
2023/04/05 23:00:42;;;;;;;4.30;3.90;;;7.10;25.00;;;;;;10280755;28;20737;-73
2023/04/05 23:05:45;;;;;;;3.77;3.37;;;7.00;24.90;;;;;;10285097;28;20232;-76
2023/04/05 23:10:50;;;;;;;3.87;3.40;;;7.00;25.00;;;;;;10283773;28;20238;-74
2023/04/05 23:15:53;;;;;;;4.30;3.57;;;6.90;25.10;;;;;;10286106;28;20223;-75
2023/04/05 23:20:56;;;;;;;5.50;4.67;;;6.80;25.00;;;;;;10288024;28;20231;-75
2023/04/05 23:26:01;;;;;;;6.00;4.20;;;6.70;25.20;;;;;;10281884;28;20224;-75
2023/04/05 23:31:04;;;;;;;5.23;4.40;;;6.60;25.20;;;;;;10278726;28;20220;-76
2023/04/05 23:36:09;;;;;;;4.70;4.20;;;6.60;25.30;;;;;;10288533;28;20227;-75
2023/04/05 23:41:13;;;;;;;4.93;4.53;;;6.50;25.30;;;;;;10281837;28;20250;-75
2023/04/05 23:46:17;;;;;;;4.30;3.90;;;6.50;25.50;;;;;;10289814;28;20240;-74
2023/04/05 23:51:20;;;;;;;4.23;3.73;;;6.40;25.30;;;;;;10280952;28;20230;-74
2023/04/05 23:56:25;;;;;;;3.77;3.30;;;6.40;25.30;;;;;;10283174;28;20231;-74
